createdAt,value
2022-12-03T00:00:53.018Z,21.40
2022-12-03T00:03:26.863Z,20.50
2022-12-03T00:05:58.695Z,20.40
2022-12-03T00:08:30.229Z,18.10
2022-12-03T00:11:01.803Z,19.50
2022-12-03T00:13:33.514Z,20.70
2022-12-03T00:16:05.553Z,19.90
2022-12-03T00:18:37.121Z,20.30
2022-12-03T00:21:09.271Z,21.10
2022-12-03T00:23:42.466Z,20.50
2022-12-03T00:28:44.404Z,20.50
2022-12-03T00:31:16.149Z,20.10
2022-12-03T00:33:47.778Z,20.40
2022-12-03T00:36:20.080Z,22.10
2022-12-03T00:38:51.748Z,21.20
2022-12-03T00:41:23.237Z,21.40
2022-12-03T00:43:57.477Z,21.90
2022-12-03T00:46:29.454Z,22.90
2022-12-03T00:49:01.175Z,21.60
2022-12-03T00:51:32.786Z,19.30
2022-12-03T00:54:04.532Z,22.00
2022-12-03T00:56:36.042Z,21.50
2022-12-03T00:59:07.523Z,19.60
2022-12-03T01:01:39.110Z,21.10
2022-12-03T01:04:10.771Z,20.10
2022-12-03T01:06:42.475Z,21.50
2022-12-03T01:09:14.098Z,20.90
2022-12-03T01:11:45.608Z,18.80
2022-12-03T01:14:19.708Z,20.70
2022-12-03T01:16:51.483Z,19.00
2022-12-03T01:19:24.234Z,18.40
2022-12-03T01:21:56.188Z,18.50
2022-12-03T01:24:27.961Z,19.10
2022-12-03T01:26:59.500Z,19.40
2022-12-03T01:29:31.053Z,20.00
2022-12-03T01:32:19.450Z,20.00
2022-12-03T01:34:53.299Z,18.60
2022-12-03T01:37:26.939Z,20.40
2022-12-03T01:39:58.633Z,19.30
2022-12-03T01:42:34.344Z,17.80
2022-12-03T01:45:07.627Z,19.10
2022-12-03T01:47:41.324Z,17.20
2022-12-03T01:50:20.565Z,19.90
2022-12-03T01:52:52.201Z,17.90
2022-12-03T01:55:26.000Z,19.00
2022-12-03T01:58:00.656Z,20.90
2022-12-03T02:00:32.681Z,17.60
2022-12-03T02:03:12.520Z,19.50
2022-12-03T02:05:44.137Z,20.40
2022-12-03T02:08:33.599Z,17.90
2022-12-03T02:11:09.306Z,19.00
2022-12-03T02:13:41.053Z,20.60
2022-12-03T02:16:12.802Z,19.70
2022-12-03T02:18:44.969Z,21.00
2022-12-03T02:21:25.088Z,18.60
2022-12-03T02:24:05.198Z,19.80
2022-12-03T02:26:36.713Z,17.90
2022-12-03T02:29:08.451Z,17.40
2022-12-03T02:31:40.117Z,18.40
2022-12-03T02:34:12.691Z,20.10
2022-12-03T02:36:44.210Z,18.70
2022-12-03T02:39:15.702Z,19.20
2022-12-03T02:42:05.040Z,20.50
2022-12-03T02:44:36.842Z,20.00
2022-12-03T02:47:08.548Z,19.00
2022-12-03T02:49:40.512Z,20.60
2022-12-03T02:52:12.149Z,21.50
2022-12-03T02:54:44.158Z,21.00
2022-12-03T02:57:16.144Z,19.70
2022-12-03T02:59:48.632Z,20.50
2022-12-03T03:02:21.600Z,19.40
2022-12-03T03:04:53.915Z,16.40
2022-12-03T03:07:26.076Z,19.90
2022-12-03T03:09:58.903Z,18.80
2022-12-03T03:12:32.628Z,18.00
2022-12-03T03:15:11.162Z,19.30
2022-12-03T03:17:43.828Z,22.00
2022-12-03T03:20:16.401Z,19.40
2022-12-03T03:22:48.060Z,21.00
2022-12-03T03:25:22.445Z,18.70
2022-12-03T03:27:54.007Z,18.40
2022-12-03T03:30:25.515Z,19.40
2022-12-03T03:32:57.430Z,17.90
2022-12-03T03:35:29.696Z,20.30
2022-12-03T03:38:01.548Z,20.70
2022-12-03T03:40:33.370Z,20.90
2022-12-03T03:43:05.704Z,22.10
2022-12-03T03:45:37.424Z,20.60
2022-12-03T03:48:09.594Z,20.70
2022-12-03T03:50:41.832Z,18.30
2022-12-03T03:53:14.078Z,20.40
2022-12-03T03:55:46.058Z,19.20
2022-12-03T03:58:17.891Z,20.10
2022-12-03T04:00:49.528Z,21.10
2022-12-03T04:03:21.137Z,20.10
2022-12-03T04:05:52.717Z,19.50
2022-12-03T04:08:24.237Z,18.80
2022-12-03T04:11:13.060Z,21.90
2022-12-03T04:13:44.677Z,20.40
2022-12-03T04:16:16.196Z,19.00
2022-12-03T04:18:47.926Z,17.70
2022-12-03T04:21:39.167Z,21.80
2022-12-03T04:24:12.484Z,19.00
2022-12-03T04:27:01.945Z,18.90
2022-12-03T04:29:33.490Z,19.10
2022-12-03T04:32:22.638Z,18.90
2022-12-03T04:35:11.735Z,20.70
2022-12-03T04:37:43.622Z,18.60
2022-12-03T04:40:29.844Z,20.00
2022-12-03T04:43:01.339Z,20.70
2022-12-03T04:45:32.897Z,18.50
2022-12-03T04:48:04.654Z,20.40
2022-12-03T04:50:36.215Z,19.40
2022-12-03T04:53:07.772Z,21.70
2022-12-03T04:55:39.257Z,19.80
2022-12-03T04:58:11.432Z,21.10
2022-12-03T05:00:42.997Z,21.00
2022-12-03T05:03:14.549Z,19.10
2022-12-03T05:05:47.572Z,22.50
2022-12-03T05:08:19.120Z,21.40
2022-12-03T05:10:50.775Z,25.90
2022-12-03T05:13:22.316Z,25.00
2022-12-03T05:15:53.927Z,23.30
2022-12-03T05:18:25.521Z,27.70
2022-12-03T05:20:57.252Z,26.90
2022-12-03T05:23:28.880Z,22.80
2022-12-03T05:26:00.494Z,23.10
2022-12-03T05:28:32.198Z,26.10
2022-12-03T05:31:05.221Z,25.50
2022-12-03T05:33:42.456Z,23.30
2022-12-03T05:36:15.867Z,25.40
2022-12-03T05:38:47.579Z,28.00
2022-12-03T05:41:36.930Z,33.50
2022-12-03T05:44:08.700Z,27.50
2022-12-03T05:46:40.251Z,29.40
2022-12-03T05:49:11.815Z,24.10
2022-12-03T05:51:43.303Z,22.40
2022-12-03T05:54:14.783Z,21.50
2022-12-03T05:56:46.345Z,21.50
2022-12-03T05:59:17.970Z,22.80
2022-12-03T06:01:49.627Z,21.60
2022-12-03T06:04:21.241Z,22.70
2022-12-03T06:06:52.764Z,22.80
2022-12-03T06:09:24.286Z,26.20
2022-12-03T06:11:55.915Z,23.00
2022-12-03T06:14:30.112Z,20.60
2022-12-03T06:17:01.631Z,22.10
2022-12-03T06:19:33.585Z,21.00
2022-12-03T06:22:05.128Z,23.60
2022-12-03T06:24:36.614Z,25.30
2022-12-03T06:27:08.456Z,24.30
2022-12-03T06:29:40.206Z,22.50
2022-12-03T06:32:12.377Z,22.20
2022-12-03T06:34:43.889Z,21.90
2022-12-03T06:37:15.413Z,23.30
2022-12-03T06:39:46.956Z,23.00
2022-12-03T06:42:18.502Z,25.10
2022-12-03T06:44:49.971Z,29.50
2022-12-03T06:47:21.488Z,22.10
2022-12-03T06:49:52.968Z,21.50
2022-12-03T06:52:24.433Z,23.30
2022-12-03T06:54:56.219Z,24.90
2022-12-03T06:57:28.102Z,24.40
2022-12-03T06:59:59.623Z,25.00
2022-12-03T07:02:31.184Z,22.50
2022-12-03T07:05:03.006Z,24.60
2022-12-03T07:07:34.644Z,22.40
2022-12-03T07:10:07.853Z,23.80
2022-12-03T07:12:39.358Z,22.50
2022-12-03T07:15:12.319Z,22.90
2022-12-03T07:17:43.898Z,22.80
2022-12-03T07:20:16.758Z,22.60
2022-12-03T07:22:48.293Z,20.60
2022-12-03T07:25:23.463Z,24.90
2022-12-03T07:27:55.513Z,22.30
2022-12-03T07:30:27.910Z,27.50
2022-12-03T07:32:59.669Z,23.90
2022-12-03T07:35:31.297Z,21.50
2022-12-03T07:38:02.933Z,20.20
2022-12-03T07:40:34.479Z,26.90
2022-12-03T07:43:06.133Z,23.70
2022-12-03T07:45:37.668Z,24.20
2022-12-03T07:48:09.304Z,29.40
2022-12-03T07:50:40.895Z,26.00
2022-12-03T07:53:12.418Z,24.60
2022-12-03T07:55:43.958Z,22.30
2022-12-03T07:58:15.495Z,24.20
2022-12-03T08:00:47.020Z,23.90
2022-12-03T08:03:18.584Z,26.00
2022-12-03T08:05:50.129Z,23.00
2022-12-03T08:08:21.791Z,23.70
2022-12-03T08:10:53.284Z,27.00
2022-12-03T08:13:24.803Z,25.90
2022-12-03T08:15:58.872Z,25.90
2022-12-03T08:18:31.130Z,25.00
2022-12-03T08:21:02.903Z,28.50
2022-12-03T08:23:35.578Z,26.20
2022-12-03T08:26:14.151Z,25.40
2022-12-03T08:28:45.765Z,26.90
2022-12-03T08:31:25.786Z,27.30
2022-12-03T08:34:16.692Z,27.60
2022-12-03T08:36:52.262Z,23.90
2022-12-03T08:39:33.479Z,24.10
2022-12-03T08:42:35.500Z,24.90
2022-12-03T08:45:35.276Z,30.30
2022-12-03T08:51:22.249Z,24.80
2022-12-03T08:54:12.894Z,23.90
2022-12-03T08:59:36.427Z,25.20
2022-12-03T09:02:19.860Z,26.80
2022-12-03T09:04:53.317Z,23.30
2022-12-03T09:07:25.349Z,25.40
2022-12-03T09:09:57.297Z,27.80
2022-12-03T09:12:28.919Z,27.10
2022-12-03T09:15:00.474Z,23.40
2022-12-03T09:17:32.266Z,25.70
2022-12-03T09:20:05.414Z,24.30
2022-12-03T09:22:36.937Z,20.30
2022-12-03T09:25:09.776Z,25.50
2022-12-03T09:27:41.315Z,24.70
2022-12-03T09:30:14.505Z,25.90
2022-12-03T09:32:46.085Z,27.70
2022-12-03T09:35:17.846Z,28.30
2022-12-03T09:37:49.440Z,31.60
2022-12-03T09:40:21.477Z,29.70
2022-12-03T09:42:53.703Z,29.20
2022-12-03T09:45:25.284Z,30.70
2022-12-03T09:47:57.716Z,29.20
2022-12-03T09:50:29.719Z,26.80
2022-12-03T09:53:04.579Z,30.60
2022-12-03T09:55:36.437Z,27.50
2022-12-03T09:58:13.475Z,30.90
2022-12-03T10:00:48.137Z,34.60
2022-12-03T10:03:29.454Z,30.60
2022-12-03T10:06:01.517Z,29.40
2022-12-03T10:08:33.500Z,28.40
2022-12-03T10:11:05.105Z,31.70
2022-12-03T10:13:38.594Z,34.70
2022-12-03T10:16:13.492Z,32.50
2022-12-03T10:18:48.531Z,35.70
2022-12-03T10:24:27.026Z,27.90
2022-12-03T10:27:00.612Z,28.10
2022-12-03T10:38:03.409Z,27.20
2022-12-03T10:40:36.960Z,30.10
2022-12-03T10:43:24.387Z,27.70
2022-12-03T10:46:13.615Z,26.30
2022-12-03T10:48:45.229Z,30.80
2022-12-03T10:51:21.257Z,27.30
2022-12-03T10:53:54.301Z,31.10
2022-12-03T10:56:27.823Z,27.40
2022-12-03T11:04:36.842Z,26.40
2022-12-03T11:10:13.948Z,35.60
2022-12-03T11:13:05.991Z,39.30
2022-12-03T11:15:46.237Z,36.80
2022-12-03T11:19:03.228Z,33.80
2022-12-03T11:21:34.905Z,30.00
2022-12-03T11:24:21.732Z,36.10
2022-12-03T11:27:25.481Z,30.80
2022-12-03T11:30:02.433Z,29.80
2022-12-03T11:33:06.432Z,30.40
2022-12-03T11:36:15.478Z,28.80
2022-12-03T11:39:03.918Z,27.10
2022-12-03T11:41:36.821Z,32.00
2022-12-03T11:44:32.216Z,29.50
2022-12-03T11:47:14.753Z,30.00
2022-12-03T11:49:50.198Z,35.00
2022-12-03T11:55:34.398Z,34.00
2022-12-03T11:58:14.508Z,39.60
2022-12-03T12:01:04.794Z,39.00
2022-12-03T12:03:39.636Z,36.30
2022-12-03T12:06:13.403Z,43.00
2022-12-03T12:08:58.534Z,39.40
2022-12-03T12:11:31.879Z,37.90
2022-12-03T12:14:04.806Z,34.70
2022-12-03T12:16:51.699Z,36.60
2022-12-03T12:22:32.454Z,39.40
2022-12-03T12:25:06.088Z,37.40
2022-12-03T12:27:45.347Z,37.40
2022-12-03T12:30:18.518Z,43.30
2022-12-03T12:32:52.613Z,31.50
2022-12-03T12:35:35.328Z,38.10
2022-12-03T12:38:18.762Z,44.00
2022-12-03T12:40:53.530Z,35.40
2022-12-03T12:43:31.890Z,40.60
2022-12-03T12:46:46.035Z,41.20
2022-12-03T12:49:12.255Z,41.50
2022-12-03T12:54:36.042Z,45.10
2022-12-03T12:57:14.053Z,42.00
2022-12-03T12:59:45.640Z,38.90
2022-12-03T13:02:39.525Z,45.00
2022-12-03T13:08:10.111Z,39.30
2022-12-03T13:10:43.464Z,41.00
2022-12-03T13:16:12.971Z,39.50
2022-12-03T13:18:48.025Z,43.30
2022-12-03T13:27:48.415Z,38.70
2022-12-03T13:30:24.955Z,35.80
2022-12-03T13:33:07.639Z,38.80
2022-12-03T13:38:29.129Z,40.70
2022-12-03T13:41:07.081Z,45.90
2022-12-03T13:43:44.532Z,42.50
2022-12-03T13:49:16.776Z,41.40
2022-12-03T13:51:48.973Z,41.20
2022-12-03T13:54:24.928Z,37.20
2022-12-03T13:59:45.974Z,37.30
2022-12-03T14:02:17.614Z,34.80
2022-12-03T14:04:55.362Z,38.00
2022-12-03T14:07:30.521Z,43.40
2022-12-03T14:10:02.204Z,44.90
2022-12-03T14:12:37.992Z,36.90
2022-12-03T14:15:11.500Z,39.40
2022-12-03T14:20:14.604Z,37.60
2022-12-03T14:22:46.395Z,36.00
2022-12-03T14:25:29.655Z,48.90
2022-12-03T14:28:01.392Z,35.50
2022-12-03T14:30:32.925Z,36.40
2022-12-03T14:33:04.441Z,36.60
2022-12-03T14:35:36.007Z,40.00
2022-12-03T14:38:07.559Z,48.90
2022-12-03T14:40:40.314Z,42.30
2022-12-03T14:48:43.993Z,45.20
2022-12-03T14:51:25.710Z,49.40
2022-12-03T14:53:57.204Z,42.50
2022-12-03T14:56:34.443Z,44.10
2022-12-03T14:59:07.131Z,46.40
2022-12-03T15:01:38.841Z,39.50
2022-12-03T15:06:57.153Z,47.00
2022-12-03T15:09:28.692Z,46.30
2022-12-03T15:14:46.209Z,45.50
2022-12-03T15:20:10.227Z,39.10
2022-12-03T15:22:41.818Z,46.30
2022-12-03T15:25:13.665Z,39.50
2022-12-03T15:27:45.252Z,41.00
2022-12-03T15:30:17.629Z,47.10
2022-12-03T15:35:39.421Z,41.60
2022-12-03T15:43:55.028Z,44.60
2022-12-03T15:46:28.217Z,41.40
2022-12-03T15:49:12.870Z,36.70
2022-12-03T15:54:45.407Z,43.30
2022-12-03T16:00:15.577Z,43.70
2022-12-03T16:02:52.646Z,43.30
2022-12-03T16:05:27.660Z,47.30
2022-12-03T16:07:59.247Z,44.90
2022-12-03T16:13:17.603Z,53.00
2022-12-03T16:15:49.270Z,51.30
2022-12-03T16:18:20.971Z,46.40
2022-12-03T16:20:52.500Z,42.80
2022-12-03T16:23:35.523Z,44.90
2022-12-03T16:26:10.183Z,39.20
2022-12-03T16:28:41.947Z,36.90
2022-12-03T16:31:14.068Z,43.00
2022-12-03T16:33:45.674Z,46.50
2022-12-03T16:36:17.857Z,42.20
2022-12-03T16:41:34.795Z,37.50
2022-12-03T16:44:06.628Z,41.50
2022-12-03T16:49:24.781Z,38.20
2022-12-03T16:54:47.653Z,41.90
2022-12-03T17:00:11.626Z,37.70
2022-12-03T17:02:43.312Z,35.60
2022-12-03T17:05:15.200Z,38.10
2022-12-03T17:07:46.802Z,42.30
2022-12-03T17:10:18.481Z,44.40
2022-12-03T17:15:42.196Z,41.10
2022-12-03T17:18:13.927Z,48.00
2022-12-03T17:20:45.507Z,38.60
2022-12-03T17:23:18.516Z,38.60
2022-12-03T17:25:49.987Z,33.90
2022-12-03T17:28:21.525Z,36.20
2022-12-03T17:30:53.132Z,38.60
2022-12-03T17:33:24.781Z,45.00
2022-12-03T17:35:56.292Z,38.20
2022-12-03T17:38:28.059Z,42.30
2022-12-03T17:40:59.531Z,44.10
2022-12-03T17:43:31.038Z,45.10
2022-12-03T17:46:02.575Z,35.90
2022-12-03T17:48:35.272Z,34.70
2022-12-03T17:51:07.318Z,35.50
2022-12-03T17:53:38.837Z,34.10
2022-12-03T17:56:10.633Z,31.00
2022-12-03T17:58:42.129Z,39.30
2022-12-03T18:01:14.217Z,42.40
2022-12-03T18:03:45.760Z,44.50
2022-12-03T18:06:17.295Z,38.20
2022-12-03T18:08:48.796Z,41.20
2022-12-03T18:11:20.367Z,48.00
2022-12-03T18:13:52.968Z,47.30
2022-12-03T18:16:25.782Z,40.90
2022-12-03T18:19:00.902Z,44.10
2022-12-03T18:21:36.636Z,44.70
2022-12-03T18:24:10.157Z,48.90
2022-12-03T18:29:11.786Z,51.70
2022-12-03T18:31:43.354Z,43.60
2022-12-03T18:34:14.962Z,48.20
2022-12-03T18:36:46.976Z,48.20
2022-12-03T18:39:25.860Z,49.60
2022-12-03T18:41:57.426Z,51.10
2022-12-03T18:44:29.087Z,49.10
2022-12-03T18:47:02.463Z,47.80
2022-12-03T18:52:04.305Z,46.80
2022-12-03T18:54:36.108Z,43.90
2022-12-03T18:57:07.822Z,47.90
2022-12-03T18:59:39.568Z,45.60
2022-12-03T19:02:38.665Z,44.40
2022-12-03T19:05:10.468Z,47.10
2022-12-03T19:07:43.292Z,46.80
2022-12-03T19:10:15.223Z,43.90
2022-12-03T19:12:46.805Z,53.70
2022-12-03T19:15:18.896Z,50.20
2022-12-03T19:17:52.328Z,46.10
2022-12-03T19:20:23.860Z,51.20
2022-12-03T19:22:55.538Z,48.50
2022-12-03T19:25:27.071Z,46.70
2022-12-03T19:27:58.642Z,48.10
2022-12-03T19:30:30.262Z,55.30
2022-12-03T19:33:01.880Z,54.00
2022-12-03T19:35:33.528Z,56.10
2022-12-03T19:38:05.080Z,50.60
2022-12-03T19:40:36.613Z,46.70
2022-12-03T19:43:08.131Z,54.50
2022-12-03T19:45:39.708Z,44.80
2022-12-03T19:48:11.221Z,45.60
2022-12-03T19:51:02.948Z,41.90
2022-12-03T19:53:42.687Z,41.60
2022-12-03T19:56:16.145Z,44.00
2022-12-03T19:58:48.639Z,48.60
2022-12-03T20:01:22.049Z,48.40
2022-12-03T20:03:55.576Z,49.50
2022-12-03T20:06:30.631Z,48.10
2022-12-03T20:09:04.881Z,52.00
2022-12-03T20:11:37.146Z,52.30
2022-12-03T20:14:10.542Z,56.60
2022-12-03T20:16:42.787Z,56.80
2022-12-03T20:19:17.431Z,55.50
2022-12-03T20:21:49.297Z,58.20
2022-12-03T20:24:20.905Z,51.20
2022-12-03T20:26:52.623Z,55.90
2022-12-03T20:29:24.146Z,52.20
2022-12-03T20:31:56.015Z,49.20
2022-12-03T20:34:27.633Z,53.10
2022-12-03T20:36:59.131Z,54.30
2022-12-03T20:39:30.674Z,56.60
2022-12-03T20:42:02.179Z,59.40
2022-12-03T20:44:33.780Z,51.10
2022-12-03T20:47:05.449Z,45.40
2022-12-03T20:49:40.261Z,52.10
2022-12-03T20:52:12.119Z,49.80
2022-12-03T20:54:43.669Z,52.40
2022-12-03T20:57:15.153Z,58.20
2022-12-03T20:59:46.699Z,58.60
2022-12-03T21:02:18.248Z,58.60
2022-12-03T21:04:50.147Z,60.50
2022-12-03T21:07:22.698Z,61.80
2022-12-03T21:09:54.799Z,55.40
2022-12-03T21:12:28.015Z,55.10
2022-12-03T21:14:59.707Z,48.80
2022-12-03T21:17:31.253Z,57.10
2022-12-03T21:20:02.927Z,58.60
2022-12-03T21:22:34.405Z,49.40
2022-12-03T21:25:06.944Z,57.50
2022-12-03T21:27:38.594Z,51.40
2022-12-03T21:30:11.698Z,53.90
2022-12-03T21:32:43.162Z,46.90
2022-12-03T21:35:14.946Z,52.00
2022-12-03T21:37:46.550Z,59.50
2022-12-03T21:40:18.514Z,54.60
2022-12-03T21:42:50.043Z,54.30
2022-12-03T21:45:25.027Z,54.00
2022-12-03T21:47:56.756Z,47.10
2022-12-03T21:50:28.449Z,49.90
2022-12-03T21:52:59.943Z,48.50
2022-12-03T21:55:31.476Z,54.50
2022-12-03T21:58:03.030Z,52.40
2022-12-03T22:00:34.618Z,50.30
2022-12-03T22:03:06.209Z,46.00
2022-12-03T22:05:40.077Z,51.10
2022-12-03T22:08:13.774Z,51.70
2022-12-03T22:10:45.392Z,54.50
2022-12-03T22:13:16.962Z,48.20
2022-12-03T22:15:48.613Z,50.50
2022-12-03T22:18:20.241Z,48.60
2022-12-03T22:20:51.833Z,52.20
2022-12-03T22:23:23.391Z,46.80
2022-12-03T22:26:02.212Z,46.80
2022-12-03T22:28:34.591Z,42.40
2022-12-03T22:31:09.568Z,42.90
2022-12-03T22:33:41.857Z,42.60
2022-12-03T22:36:20.607Z,45.20
2022-12-03T22:38:54.135Z,42.20
2022-12-03T22:41:25.673Z,42.70
2022-12-03T22:43:57.180Z,42.00
2022-12-03T22:46:28.769Z,40.40
2022-12-03T22:49:06.500Z,39.60
2022-12-03T22:51:38.758Z,40.50
2022-12-03T22:54:11.507Z,38.70
2022-12-03T22:56:42.988Z,34.00
2022-12-03T22:59:14.724Z,41.20
2022-12-03T23:01:46.292Z,42.40
2022-12-03T23:04:17.953Z,46.50
2022-12-03T23:06:49.661Z,47.00
2022-12-03T23:09:21.261Z,43.90
2022-12-03T23:11:52.817Z,42.30
2022-12-03T23:14:24.363Z,43.10
2022-12-03T23:16:55.863Z,39.70
2022-12-03T23:19:27.368Z,42.00
2022-12-03T23:21:59.276Z,39.80
2022-12-03T23:24:30.757Z,42.30
2022-12-03T23:27:02.251Z,36.20
2022-12-03T23:29:35.135Z,42.10
2022-12-03T23:32:06.801Z,35.60
2022-12-03T23:34:38.384Z,40.90
2022-12-03T23:37:10.046Z,39.40
2022-12-03T23:39:41.764Z,43.40
2022-12-03T23:42:13.273Z,41.40
2022-12-03T23:44:44.841Z,44.60
2022-12-03T23:47:17.658Z,42.60
2022-12-03T23:49:49.239Z,36.30
2022-12-03T23:52:20.766Z,37.00
2022-12-03T23:54:52.372Z,35.20
2022-12-03T23:57:23.910Z,33.80
2022-12-03T23:59:55.634Z,35.00
